Time;durP1;ratioP1;P1;durP2;ratioP2;P2;SDS_P1;SDS_P2;PMS_P1;PMS_P2;Temp;Humidity;BMP_temperature;BMP_pressure;BME280_temperature;BME280_humidity;BME280_pressure;Samples;Min_cycle;Max_cycle;Signal;HPM_P1;HPM_P2
2022/11/21 00:00:23;;;;;;;0.70;0.70;;;-1.10;99.90;;;;;;5094886;28;20223;-74
2022/11/21 00:02:49;;;;;;;0.70;0.70;;;-1.10;99.90;;;;;;5101955;28;20206;-74
2022/11/21 00:05:15;;;;;;;0.80;0.80;;;-1.10;99.90;;;;;;5097570;27;20673;-74
2022/11/21 00:07:40;;;;;;;0.68;0.68;;;-1.10;99.90;;;;;;5135698;27;20234;-74
2022/11/21 00:10:06;;;;;;;0.70;0.70;;;-1.10;99.90;;;;;;5117542;27;20553;-74
2022/11/21 00:12:32;;;;;;;0.70;0.70;;;-1.00;99.90;;;;;;5135743;27;20191;-74
2022/11/21 00:14:57;;;;;;;0.60;0.60;;;-1.00;99.90;;;;;;5135869;27;20183;-74
2022/11/21 00:17:23;;;;;;;0.70;0.70;;;-1.10;99.90;;;;;;5117340;27;20198;-74
2022/11/21 00:19:49;;;;;;;0.80;0.80;;;-1.10;99.90;;;;;;5117466;27;20186;-74
2022/11/21 00:22:14;;;;;;;0.70;0.70;;;-1.10;99.90;;;;;;5135735;27;20226;-74
2022/11/21 00:24:40;;;;;;;0.60;0.60;;;-1.00;99.90;;;;;;5135397;27;20699;-74
2022/11/21 00:27:06;;;;;;;0.70;0.70;;;-1.10;99.90;;;;;;5123781;27;20195;-74
2022/11/21 00:29:31;;;;;;;0.60;0.60;;;-1.00;99.90;;;;;;5114884;28;20187;-74
2022/11/21 00:31:57;;;;;;;0.60;0.60;;;-1.10;99.90;;;;;;5114942;28;20198;-74
2022/11/21 00:34:22;;;;;;;0.70;0.70;;;-1.10;99.90;;;;;;5114899;28;20192;-74
2022/11/21 00:36:48;;;;;;;0.50;0.50;;;-1.10;99.90;;;;;;5114916;28;20270;-74
2022/11/21 00:39:14;;;;;;;0.57;0.57;;;-1.00;99.90;;;;;;5093030;28;20741;-74
2022/11/21 00:41:39;;;;;;;0.63;0.63;;;-1.10;99.90;;;;;;5094273;28;20282;-74
2022/11/21 00:44:05;;;;;;;0.60;0.60;;;-1.00;99.90;;;;;;5094287;28;20212;-74
2022/11/21 00:46:30;;;;;;;0.63;0.63;;;-1.00;99.90;;;;;;5075902;28;20540;-74
2022/11/21 00:48:56;;;;;;;0.93;0.93;;;-1.00;99.90;;;;;;5076137;28;20283;-74
2022/11/21 00:51:22;;;;;;;0.70;0.70;;;-1.00;99.90;;;;;;5094101;28;20279;-74
2022/11/21 00:53:47;;;;;;;0.60;0.60;;;-1.00;99.90;;;;;;5093294;28;20231;-74
2022/11/21 00:56:13;;;;;;;0.70;0.70;;;-0.90;99.90;;;;;;5076076;28;20197;-74
2022/11/21 00:58:39;;;;;;;0.60;0.60;;;-0.90;99.90;;;;;;5097221;28;20191;-74
2022/11/21 01:01:09;;;;;;;0.60;0.60;;;-0.90;99.90;;;;;;5114251;28;20203;-74
2022/11/21 01:03:35;;;;;;;0.70;0.70;;;-0.90;99.90;;;;;;5114212;28;20244;-74
2022/11/21 01:06:04;;;;;;;0.70;0.70;;;-0.80;99.90;;;;;;5096086;28;20195;-74
2022/11/21 01:08:30;;;;;;;0.70;0.70;;;-0.80;99.90;;;;;;5095563;28;20228;-74
2022/11/21 01:10:56;;;;;;;0.75;0.75;;;-0.80;99.90;;;;;;5114160;28;20194;-74
2022/11/21 01:13:22;;;;;;;0.70;0.70;;;-0.80;99.90;;;;;;5114114;28;20222;-74
2022/11/21 01:15:47;;;;;;;0.60;0.60;;;-0.80;99.90;;;;;;5114141;28;20195;-74
2022/11/21 01:18:13;;;;;;;0.60;0.60;;;-0.70;99.90;;;;;;5114234;28;20237;-74
2022/11/21 01:20:39;;;;;;;0.63;0.63;;;-0.70;99.90;;;;;;5113812;28;20218;-74
2022/11/21 01:23:05;;;;;;;0.55;0.55;;;-0.70;99.90;;;;;;5113432;28;20210;-74
2022/11/21 01:25:33;;;;;;;0.70;0.70;;;-0.60;99.90;;;;;;5095431;28;20562;-74
2022/11/21 01:27:59;;;;;;;0.73;0.73;;;-0.60;99.90;;;;;;5113891;28;20198;-74
2022/11/21 01:30:24;;;;;;;0.70;0.70;;;-0.60;99.90;;;;;;5113650;28;20546;-74
2022/11/21 01:32:51;;;;;;;0.70;0.70;;;-0.60;99.90;;;;;;5113943;28;20249;-74
2022/11/21 01:35:17;;;;;;;0.60;0.60;;;-0.60;99.90;;;;;;5095571;28;20206;-74
2022/11/21 01:37:47;;;;;;;0.70;0.70;;;-0.60;99.90;;;;;;5107254;28;20651;-74
2022/11/21 01:40:13;;;;;;;0.70;0.70;;;-0.60;99.90;;;;;;5093500;28;20192;-74
2022/11/21 01:42:48;;;;;;;0.70;0.70;;;-0.60;99.90;;;;;;5093311;28;20701;-74
2022/11/21 01:45:48;;;;;;;0.80;0.80;;;-0.60;99.90;;;;;;5093568;28;20184;-74
2022/11/21 01:48:13;;;;;;;0.63;0.63;;;-0.60;99.90;;;;;;5075189;28;20200;-74
2022/11/21 01:50:39;;;;;;;0.60;0.60;;;-0.60;99.90;;;;;;5075003;28;20557;-75
2022/11/21 01:53:05;;;;;;;0.70;0.70;;;-0.50;99.90;;;;;;5093313;28;20221;-74
2022/11/21 01:55:31;;;;;;;0.70;0.70;;;-0.50;99.90;;;;;;5101569;28;20199;-74
2022/11/21 01:57:57;;;;;;;0.60;0.60;;;-0.50;99.90;;;;;;5113544;28;20666;-74
2022/11/21 02:00:30;;;;;;;0.80;0.80;;;-0.50;99.90;;;;;;5113311;28;20191;-73
2022/11/21 02:03:01;;;;;;;0.70;0.70;;;-0.50;99.90;;;;;;5113703;28;20208;-72
2022/11/21 02:05:29;;;;;;;0.70;0.70;;;-0.50;99.90;;;;;;5113201;28;20228;-72
2022/11/21 02:07:58;;;;;;;0.95;0.95;;;-0.50;99.90;;;;;;5113683;28;20314;-72
2022/11/21 02:10:25;;;;;;;0.57;0.57;;;-0.50;99.90;;;;;;5113010;28;20558;-72
2022/11/21 02:12:53;;;;;;;0.68;0.68;;;-0.50;99.90;;;;;;5113189;28;20603;-73
2022/11/21 02:15:21;;;;;;;0.65;0.65;;;-0.50;99.90;;;;;;5113229;28;20191;-72
2022/11/21 02:17:47;;;;;;;0.60;0.60;;;-0.50;99.90;;;;;;5113304;28;20582;-73
2022/11/21 02:20:16;;;;;;;0.73;0.73;;;-0.50;99.90;;;;;;5112968;28;20207;-73
2022/11/21 02:23:23;;;;;;;0.60;0.60;;;-0.50;99.90;;;;;;5112882;28;20328;-73
2022/11/21 02:25:50;;;;;;;0.70;0.70;;;-0.40;99.90;;;;;;5113169;28;20196;-73
2022/11/21 02:28:19;;;;;;;0.60;0.60;;;-0.40;99.90;;;;;;5094946;28;20191;-72
2022/11/21 02:30:45;;;;;;;0.60;0.60;;;-0.40;99.90;;;;;;5112930;28;20195;-73
2022/11/21 02:33:12;;;;;;;0.63;0.63;;;-0.40;99.90;;;;;;5094675;28;20199;-73
2022/11/21 02:35:38;;;;;;;0.68;0.68;;;-0.40;99.90;;;;;;5094676;28;20239;-73
2022/11/21 02:38:23;;;;;;;0.68;0.68;;;-0.40;99.90;;;;;;5103576;28;20219;-73
2022/11/21 02:41:15;;;;;;;0.70;0.70;;;-0.30;99.90;;;;;;5092446;28;20195;-73
2022/11/21 02:43:45;;;;;;;0.60;0.60;;;-0.30;99.90;;;;;;5092389;28;20569;-72
2022/11/21 02:46:10;;;;;;;0.80;0.80;;;-0.30;99.90;;;;;;5074514;28;20663;-73
2022/11/21 02:48:37;;;;;;;0.60;0.60;;;-0.30;99.90;;;;;;5092498;28;20200;-72
2022/11/21 02:51:04;;;;;;;0.60;0.60;;;-0.30;99.90;;;;;;5095084;28;20188;-72
2022/11/21 02:53:29;;;;;;;0.68;0.68;;;-0.30;99.90;;;;;;5104112;28;20203;-72
2022/11/21 02:55:55;;;;;;;0.70;0.70;;;-0.30;99.90;;;;;;5115013;28;20675;-72
2022/11/21 02:58:21;;;;;;;0.70;0.70;;;-0.30;99.90;;;;;;5133491;28;20273;-73
2022/11/21 03:00:46;;;;;;;0.65;0.65;;;-0.30;99.90;;;;;;5123850;28;20283;-72
2022/11/21 03:03:13;;;;;;;0.70;0.70;;;-0.30;99.90;;;;;;5109167;28;20192;-72
2022/11/21 03:05:39;;;;;;;0.63;0.63;;;-0.30;99.90;;;;;;5112658;28;20188;-72
2022/11/21 03:08:05;;;;;;;0.70;0.70;;;-0.30;99.90;;;;;;5112756;28;20242;-72
2022/11/21 03:10:32;;;;;;;0.70;0.70;;;-0.30;99.90;;;;;;5094084;28;20196;-72
2022/11/21 03:13:00;;;;;;;0.50;0.50;;;-0.40;99.90;;;;;;5094332;28;20265;-73
2022/11/21 03:15:31;;;;;;;0.60;0.60;;;-0.40;99.90;;;;;;5105522;28;20192;-73
2022/11/21 03:17:57;;;;;;;0.60;0.60;;;-0.40;99.90;;;;;;5093750;28;20275;-72
2022/11/21 03:20:23;;;;;;;0.60;0.60;;;-0.40;99.90;;;;;;5114095;28;20211;-73
2022/11/21 03:22:49;;;;;;;0.70;0.70;;;-0.40;99.90;;;;;;5116270;28;20641;-73
2022/11/21 03:25:16;;;;;;;0.70;0.70;;;-0.40;99.90;;;;;;5098048;28;20191;-72
2022/11/21 03:27:41;;;;;;;0.60;0.60;;;-0.40;99.90;;;;;;5116153;28;20191;-72
2022/11/21 03:30:08;;;;;;;0.65;0.65;;;-0.30;99.90;;;;;;5097849;28;20191;-72
2022/11/21 03:32:34;;;;;;;0.60;0.60;;;-0.40;99.90;;;;;;5116040;28;20566;-72
2022/11/21 03:35:00;;;;;;;0.60;0.60;;;-0.40;99.90;;;;;;5116026;28;20188;-71
2022/11/21 03:37:25;;;;;;;0.70;0.70;;;-0.40;99.90;;;;;;5094018;28;20237;-72
2022/11/21 03:39:51;;;;;;;0.60;0.60;;;-0.40;99.90;;;;;;5077525;28;20287;-72
2022/11/21 03:42:16;;;;;;;0.70;0.70;;;-0.40;99.90;;;;;;5095686;28;20188;-73
2022/11/21 03:44:42;;;;;;;0.70;0.70;;;-0.40;99.90;;;;;;5077281;28;20655;-72
2022/11/21 03:47:08;;;;;;;0.60;0.60;;;-0.40;99.90;;;;;;5096517;28;20184;-72
2022/11/21 03:49:33;;;;;;;0.60;0.60;;;-0.30;99.90;;;;;;5115578;28;20665;-72
2022/11/21 03:51:59;;;;;;;0.70;0.70;;;-0.30;99.90;;;;;;5097651;28;20195;-72
2022/11/21 03:54:25;;;;;;;0.93;0.93;;;-0.30;99.90;;;;;;5115639;28;20203;-73
2022/11/21 03:56:50;;;;;;;0.70;0.70;;;-0.20;99.90;;;;;;5115701;28;20264;-70
2022/11/21 03:59:16;;;;;;;0.55;0.55;;;-0.20;99.90;;;;;;5115721;28;20211;-72
2022/11/21 04:01:41;;;;;;;0.70;0.70;;;-0.20;99.90;;;;;;5114708;28;20196;-72
2022/11/21 04:04:07;;;;;;;0.60;0.60;;;-0.20;99.90;;;;;;5102051;28;20210;-72
2022/11/21 04:06:33;;;;;;;0.65;0.65;;;-0.20;99.90;;;;;;5115455;28;20260;-72
2022/11/21 04:08:58;;;;;;;0.52;0.52;;;-0.20;99.90;;;;;;5093884;28;20223;-73
2022/11/21 04:11:24;;;;;;;0.68;0.68;;;-0.20;99.90;;;;;;5093311;28;20282;-72
2022/11/21 04:13:50;;;;;;;0.50;0.50;;;-0.30;99.90;;;;;;5095012;28;20646;-72
2022/11/21 04:16:16;;;;;;;0.85;0.85;;;-0.30;99.90;;;;;;5095065;28;20188;-72
2022/11/21 04:18:42;;;;;;;0.70;0.70;;;-0.30;99.90;;;;;;5094871;28;20245;-72
2022/11/21 04:21:08;;;;;;;0.50;0.50;;;-0.30;99.90;;;;;;5094901;28;20219;-72
2022/11/21 04:23:34;;;;;;;0.70;0.70;;;-0.30;99.90;;;;;;5094616;28;20211;-72
2022/11/21 04:26:00;;;;;;;0.60;0.60;;;-0.30;99.90;;;;;;5094823;28;20192;-72
2022/11/21 04:28:26;;;;;;;0.50;0.50;;;-0.30;99.90;;;;;;5094577;28;20678;-72
2022/11/21 04:30:51;;;;;;;0.70;0.70;;;-0.30;99.90;;;;;;5094663;28;20184;-72
2022/11/21 04:33:18;;;;;;;0.68;0.68;;;-0.30;99.90;;;;;;5094719;28;20224;-72
2022/11/21 04:35:44;;;;;;;0.55;0.55;;;-0.40;99.90;;;;;;5094519;28;20275;-72
2022/11/21 04:38:11;;;;;;;0.65;0.65;;;-0.30;99.90;;;;;;5084374;28;20254;-72
2022/11/21 04:40:36;;;;;;;1.08;0.98;;;-0.30;99.90;;;;;;5074167;28;20697;-72
2022/11/21 04:43:02;;;;;;;0.73;0.73;;;-0.30;99.90;;;;;;5074106;28;20201;-72
2022/11/21 04:45:28;;;;;;;0.50;0.50;;;-0.30;99.90;;;;;;5092448;28;20214;-72
2022/11/21 04:47:54;;;;;;;0.70;0.70;;;-0.30;99.90;;;;;;5094450;28;20195;-72
2022/11/21 04:50:20;;;;;;;0.70;0.70;;;-0.30;99.90;;;;;;5094222;28;20269;-72
2022/11/21 04:52:54;;;;;;;1.13;1.13;;;-0.30;99.90;;;;;;5092928;28;20199;-72
2022/11/21 04:55:22;;;;;;;0.70;0.70;;;-0.30;99.90;;;;;;5094039;28;20570;-72
2022/11/21 04:57:47;;;;;;;0.60;0.60;;;-0.40;99.90;;;;;;5094210;28;20203;-72
2022/11/21 05:00:14;;;;;;;0.70;0.70;;;-0.30;99.90;;;;;;5094228;28;20193;-72
2022/11/21 05:02:40;;;;;;;0.60;0.60;;;-0.30;99.90;;;;;;5092567;28;20207;-71
2022/11/21 05:05:07;;;;;;;1.13;0.98;;;-0.30;99.90;;;;;;5093957;28;20180;-72
2022/11/21 05:07:33;;;;;;;0.90;0.90;;;-0.30;99.90;;;;;;5098327;28;20584;-72
2022/11/21 05:09:58;;;;;;;0.70;0.70;;;-0.30;99.90;;;;;;5114280;28;20187;-73
2022/11/21 05:15:08;;;;;;;0.93;0.93;;;-0.30;99.90;;;;;;5114394;28;20247;-72
2022/11/21 05:17:34;;;;;;;0.70;0.70;;;-0.30;99.90;;;;;;5114039;28;20200;-72
2022/11/21 05:20:00;;;;;;;0.55;0.55;;;-0.30;99.90;;;;;;5095792;28;20191;-73
2022/11/21 05:22:25;;;;;;;0.57;0.57;;;-0.30;99.90;;;;;;5113927;28;20198;-72
2022/11/21 05:24:51;;;;;;;0.60;0.60;;;-0.30;99.90;;;;;;5113810;28;20294;-72
2022/11/21 05:27:17;;;;;;;0.70;0.70;;;-0.30;99.90;;;;;;5113826;28;20199;-71
2022/11/21 05:29:44;;;;;;;0.50;0.50;;;-0.40;99.90;;;;;;5095575;28;20222;-71
2022/11/21 05:32:10;;;;;;;1.10;1.05;;;-0.40;99.90;;;;;;5113878;28;20627;-71
2022/11/21 05:34:35;;;;;;;1.23;1.15;;;-0.40;99.90;;;;;;5113757;28;20244;-71
2022/11/21 05:37:01;;;;;;;0.80;0.77;;;-0.40;99.90;;;;;;5094796;28;20205;-71
2022/11/21 05:39:27;;;;;;;0.70;0.70;;;-0.40;99.90;;;;;;5092736;28;20199;-71
2022/11/21 05:41:53;;;;;;;0.80;0.80;;;-0.40;99.90;;;;;;5094963;28;20205;-73
2022/11/21 05:44:19;;;;;;;0.80;0.80;;;-0.40;99.90;;;;;;5113613;28;20306;-72
2022/11/21 05:46:44;;;;;;;0.70;0.70;;;-0.40;99.90;;;;;;5113881;28;20187;-72
2022/11/21 05:49:10;;;;;;;0.70;0.70;;;-0.40;99.90;;;;;;5095382;28;20191;-71
2022/11/21 05:51:36;;;;;;;0.70;0.70;;;-0.40;99.90;;;;;;5113439;28;20276;-71
2022/11/21 05:54:01;;;;;;;0.70;0.70;;;-0.40;99.90;;;;;;5095297;28;20510;-71
2022/11/21 05:56:27;;;;;;;0.70;0.70;;;-0.40;99.90;;;;;;5113305;28;20199;-71
2022/11/21 05:58:57;;;;;;;0.60;0.60;;;-0.40;99.90;;;;;;5095196;28;20195;-71
2022/11/21 06:04:10;;;;;;;0.60;0.60;;;-0.40;99.90;;;;;;5091432;28;20669;-71
2022/11/21 06:06:37;;;;;;;0.70;0.70;;;-0.40;99.90;;;;;;5113298;28;20206;-71
2022/11/21 06:09:03;;;;;;;0.70;0.70;;;-0.40;99.90;;;;;;5113061;28;20235;-71
2022/11/21 06:11:29;;;;;;;0.60;0.60;;;-0.40;99.90;;;;;;5113182;28;20231;-71
2022/11/21 06:13:55;;;;;;;1.15;1.13;;;-0.40;99.90;;;;;;5113350;28;20219;-72
2022/11/21 06:16:21;;;;;;;1.00;0.98;;;-0.40;99.90;;;;;;5113059;28;20270;-72
2022/11/21 06:18:51;;;;;;;0.63;0.63;;;-0.40;99.90;;;;;;5095291;28;20199;-72
2022/11/21 06:21:20;;;;;;;0.60;0.60;;;-0.40;99.90;;;;;;5094894;28;20253;-71
2022/11/21 06:23:46;;;;;;;0.68;0.68;;;-0.40;99.90;;;;;;5112980;28;20207;-72
2022/11/21 06:26:15;;;;;;;0.70;0.70;;;-0.40;99.90;;;;;;5094886;28;20196;-72
2022/11/21 06:28:41;;;;;;;0.60;0.60;;;-0.30;99.90;;;;;;5113000;28;20623;-71
2022/11/21 06:31:10;;;;;;;0.70;0.70;;;-0.30;99.90;;;;;;5113021;28;20187;-71
2022/11/21 06:33:36;;;;;;;0.70;0.70;;;-0.30;99.90;;;;;;5112974;28;20198;-71
2022/11/21 06:36:08;;;;;;;0.68;0.68;;;-0.30;99.90;;;;;;5094668;28;20606;-71
2022/11/21 06:38:34;;;;;;;0.70;0.70;;;-0.30;99.90;;;;;;5112417;28;20674;-71
2022/11/21 06:41:10;;;;;;;1.27;1.17;;;-0.30;99.90;;;;;;5112984;28;20227;-71
2022/11/21 06:43:36;;;;;;;0.70;0.70;;;-0.30;99.90;;;;;;5112825;28;20195;-71
2022/11/21 06:46:03;;;;;;;0.80;0.80;;;-0.30;99.90;;;;;;5113019;28;20195;-70
2022/11/21 06:48:29;;;;;;;0.68;0.68;;;-0.30;99.90;;;;;;5112830;28;20214;-71
2022/11/21 06:50:55;;;;;;;0.70;0.70;;;-0.40;99.90;;;;;;5112945;28;20248;-71
2022/11/21 06:53:21;;;;;;;0.70;0.70;;;-0.40;99.90;;;;;;5116259;28;20658;-71
2022/11/21 06:55:46;;;;;;;0.68;0.68;;;-0.40;99.90;;;;;;5116945;28;20279;-72
2022/11/21 06:58:12;;;;;;;0.73;0.73;;;-0.50;99.90;;;;;;5116903;28;20198;-72
2022/11/21 07:00:38;;;;;;;0.65;0.65;;;-0.40;99.90;;;;;;5116437;28;20286;-72
2022/11/21 07:03:03;;;;;;;0.55;0.55;;;-0.50;99.90;;;;;;5098442;28;20257;-72
2022/11/21 07:05:30;;;;;;;0.52;0.52;;;-0.40;99.90;;;;;;5116525;28;20192;-71
2022/11/21 07:07:59;;;;;;;0.60;0.60;;;-0.40;99.90;;;;;;5116788;28;20701;-72
2022/11/21 07:10:25;;;;;;;1.45;0.98;;;-0.50;99.90;;;;;;5098223;28;20286;-72
2022/11/21 07:15:35;;;;;;;0.60;0.60;;;-0.50;99.90;;;;;;5116638;28;20201;-72
2022/11/21 07:18:01;;;;;;;0.63;0.63;;;-0.50;99.90;;;;;;5116573;28;20278;-73
2022/11/21 07:20:26;;;;;;;1.83;1.67;;;-0.50;99.90;;;;;;5098149;28;20209;-72
2022/11/21 07:22:55;;;;;;;0.90;0.90;;;-0.50;99.90;;;;;;5097986;28;20187;-73
2022/11/21 07:25:21;;;;;;;2.05;1.65;;;-0.50;99.90;;;;;;5116095;28;20611;-71
2022/11/21 07:27:47;;;;;;;0.82;0.82;;;-0.50;99.90;;;;;;5116341;28;20250;-71
2022/11/21 07:30:13;;;;;;;0.60;0.60;;;-0.50;99.90;;;;;;5097859;28;20196;-72
2022/11/21 07:32:39;;;;;;;0.80;0.80;;;-0.50;99.90;;;;;;5116011;28;20234;-72
2022/11/21 07:35:05;;;;;;;1.33;1.15;;;-0.40;99.90;;;;;;5116087;28;20218;-71
2022/11/21 07:37:31;;;;;;;0.63;0.63;;;-0.40;99.90;;;;;;5115644;28;20673;-72
2022/11/21 07:39:57;;;;;;;0.80;0.80;;;-0.40;99.90;;;;;;5116168;28;20187;-72
2022/11/21 07:42:22;;;;;;;0.70;0.70;;;-0.30;99.90;;;;;;5115927;28;20247;-72
2022/11/21 07:44:48;;;;;;;0.68;0.68;;;-0.30;99.90;;;;;;5115921;28;20203;-72
2022/11/21 07:47:14;;;;;;;0.70;0.70;;;-0.30;99.90;;;;;;5116028;28;20274;-72
2022/11/21 07:49:39;;;;;;;0.90;0.90;;;-0.30;99.90;;;;;;5097484;28;20282;-72
2022/11/21 07:52:05;;;;;;;1.15;1.13;;;-0.30;99.90;;;;;;5097659;28;20191;-72
2022/11/21 07:54:31;;;;;;;0.60;0.60;;;-0.30;99.90;;;;;;5115304;28;20196;-72
2022/11/21 07:56:56;;;;;;;0.70;0.70;;;-0.30;99.90;;;;;;5114724;28;20206;-73
2022/11/21 07:59:22;;;;;;;0.80;0.80;;;-0.30;99.90;;;;;;5097245;28;20191;-72
2022/11/21 08:01:50;;;;;;;0.82;0.82;;;-0.30;99.90;;;;;;5115843;28;20187;-72
2022/11/21 08:04:16;;;;;;;1.48;1.30;;;-0.30;99.90;;;;;;5115237;28;20665;-72
2022/11/21 08:06:42;;;;;;;0.70;0.70;;;-0.30;99.90;;;;;;5115339;28;20590;-72
2022/11/21 08:09:08;;;;;;;0.57;0.57;;;-0.40;99.90;;;;;;5093438;28;20232;-72
2022/11/21 08:11:35;;;;;;;0.70;0.70;;;-0.40;99.90;;;;;;5093663;28;20200;-72
2022/11/21 08:14:01;;;;;;;0.75;0.75;;;-0.30;99.90;;;;;;5095074;28;20275;-72
2022/11/21 08:16:28;;;;;;;0.80;0.80;;;-0.40;99.90;;;;;;5093317;28;20303;-72
2022/11/21 08:18:54;;;;;;;0.70;0.70;;;-0.40;99.90;;;;;;5094945;28;20192;-72
2022/11/21 08:21:19;;;;;;;0.88;0.85;;;-0.40;99.90;;;;;;5094640;28;20613;-72
2022/11/21 08:23:45;;;;;;;0.52;0.52;;;-0.30;99.90;;;;;;5094643;28;20210;-71
2022/11/21 08:26:10;;;;;;;0.60;0.60;;;-0.30;99.90;;;;;;5094774;28;20195;-72
2022/11/21 08:28:36;;;;;;;0.63;0.63;;;-0.30;99.90;;;;;;5093123;28;20241;-72
2022/11/21 08:31:03;;;;;;;0.60;0.60;;;-0.30;99.90;;;;;;5093051;28;20231;-73
2022/11/21 08:33:29;;;;;;;0.60;0.60;;;-0.20;99.90;;;;;;5093143;28;20255;-72
2022/11/21 08:35:54;;;;;;;0.70;0.70;;;-0.20;99.90;;;;;;5094529;28;20686;-72
2022/11/21 08:38:20;;;;;;;0.63;0.63;;;-0.20;99.90;;;;;;5094128;28;20244;-72
2022/11/21 08:40:46;;;;;;;1.15;1.15;;;-0.20;99.90;;;;;;5094582;28;20192;-72
2022/11/21 08:43:11;;;;;;;0.93;0.93;;;-0.10;99.90;;;;;;5094579;28;20196;-72
2022/11/21 08:45:38;;;;;;;1.17;1.10;;;-0.10;99.90;;;;;;5094390;28;20274;-72
2022/11/21 08:48:11;;;;;;;0.70;0.70;;;0.00;99.90;;;;;;5094650;28;20275;-72
2022/11/21 08:50:36;;;;;;;0.80;0.80;;;0.00;99.90;;;;;;5093096;28;20671;-72
2022/11/21 08:53:03;;;;;;;0.60;0.60;;;-0.10;99.90;;;;;;5094160;28;20249;-73
2022/11/21 08:55:29;;;;;;;0.88;0.82;;;-0.10;99.90;;;;;;5094278;28;20207;-72
2022/11/21 08:57:55;;;;;;;0.68;0.68;;;-0.10;99.90;;;;;;5094255;28;20222;-71
2022/11/21 09:00:21;;;;;;;0.80;0.80;;;-0.20;99.90;;;;;;5093986;28;20224;-72
2022/11/21 09:02:47;;;;;;;1.35;0.95;;;-0.20;99.90;;;;;;5093988;28;20750;-72
2022/11/21 09:05:12;;;;;;;1.00;1.00;;;-0.10;99.90;;;;;;5094023;28;20207;-72
2022/11/21 09:07:40;;;;;;;0.70;0.70;;;-0.10;99.90;;;;;;5095647;28;20257;-72
2022/11/21 09:10:06;;;;;;;0.88;0.88;;;-0.10;99.90;;;;;;5096045;28;20191;-72
2022/11/21 09:12:31;;;;;;;1.30;1.20;;;-0.10;99.90;;;;;;5114008;28;20192;-72
2022/11/21 09:20:25;;;;;;;1.42;1.33;;;-0.20;99.90;;;;;;5113990;28;20283;-72
2022/11/21 09:22:51;;;;;;;0.90;0.90;;;-0.10;99.90;;;;;;5113972;28;20282;-71
2022/11/21 09:25:17;;;;;;;2.38;1.13;;;-0.10;99.90;;;;;;5113878;28;20557;-72
2022/11/21 09:27:43;;;;;;;0.82;0.82;;;-0.10;99.90;;;;;;5113820;28;20195;-71
2022/11/21 09:30:09;;;;;;;1.25;1.00;;;-0.20;99.90;;;;;;5095703;28;20191;-72
2022/11/21 09:32:35;;;;;;;0.70;0.70;;;-0.20;99.90;;;;;;5113835;28;20187;-72
2022/11/21 09:35:01;;;;;;;0.73;0.73;;;-0.30;99.90;;;;;;5113919;28;20196;-72
2022/11/21 09:37:27;;;;;;;0.70;0.70;;;-0.20;99.90;;;;;;5091782;28;20194;-72
2022/11/21 09:39:53;;;;;;;1.15;1.05;;;-0.20;99.90;;;;;;5093492;28;20199;-71
2022/11/21 09:42:57;;;;;;;0.70;0.70;;;-0.10;99.90;;;;;;5075258;28;20195;-71
2022/11/21 09:45:36;;;;;;;0.70;0.70;;;0.00;99.90;;;;;;5093256;28;20399;-72
2022/11/21 09:48:07;;;;;;;1.00;1.00;;;0.00;99.90;;;;;;5075093;28;20658;-72
2022/11/21 09:50:47;;;;;;;0.60;0.60;;;-0.10;99.90;;;;;;5094210;28;20210;-72
2022/11/21 09:53:19;;;;;;;1.02;1.02;;;0.00;99.90;;;;;;5113625;28;20602;-72
2022/11/21 09:55:57;;;;;;;0.60;0.60;;;0.00;99.90;;;;;;5113555;28;20672;-72
2022/11/21 09:58:26;;;;;;;0.70;0.70;;;-0.10;99.90;;;;;;5095069;28;20274;-71
2022/11/21 10:00:52;;;;;;;0.55;0.55;;;-0.10;99.90;;;;;;5113392;28;20244;-71
2022/11/21 10:03:21;;;;;;;0.77;0.77;;;-0.10;99.90;;;;;;5095032;28;20214;-72
2022/11/21 10:05:49;;;;;;;0.60;0.60;;;-0.10;99.90;;;;;;5113437;28;20188;-71
2022/11/21 10:08:20;;;;;;;0.70;0.70;;;-0.10;99.90;;;;;;5113637;28;20235;-72
2022/11/21 10:11:03;;;;;;;0.70;0.70;;;-0.10;99.90;;;;;;5113387;28;20204;-72
2022/11/21 10:13:57;;;;;;;0.68;0.68;;;-0.10;99.90;;;;;;5113199;28;20662;-72
2022/11/21 10:16:29;;;;;;;0.90;0.90;;;-0.10;99.90;;;;;;5113041;28;20657;-71
2022/11/21 10:19:13;;;;;;;0.88;0.88;;;-0.10;99.90;;;;;;5113194;28;20213;-71
2022/11/21 10:22:12;;;;;;;0.68;0.68;;;-0.10;99.90;;;;;;5112911;28;20268;-72
2022/11/21 10:24:49;;;;;;;0.70;0.70;;;-0.10;99.90;;;;;;5074378;28;20574;-72
2022/11/21 10:27:37;;;;;;;1.52;1.42;;;-0.10;99.90;;;;;;5098808;28;20187;-72
2022/11/21 10:30:16;;;;;;;2.90;1.92;;;-0.10;99.90;;;;;;5081622;28;20203;-71
2022/11/21 10:32:49;;;;;;;0.80;0.80;;;0.00;99.90;;;;;;5099350;28;20639;-72
2022/11/21 10:35:21;;;;;;;0.68;0.68;;;0.10;99.90;;;;;;5081340;28;20200;-72
2022/11/21 10:37:58;;;;;;;0.90;0.90;;;0.20;99.90;;;;;;5106182;28;20516;-72
2022/11/21 10:40:38;;;;;;;0.90;0.90;;;0.30;99.90;;;;;;5119623;28;20191;-72
2022/11/21 10:46:30;;;;;;;1.13;0.93;;;0.20;99.90;;;;;;5098587;27;20572;-72
2022/11/21 10:49:00;;;;;;;0.80;0.80;;;0.20;99.90;;;;;;5121891;27;20195;-72
2022/11/21 10:52:03;;;;;;;1.30;1.20;;;0.20;99.90;;;;;;5140267;27;20190;-72
2022/11/21 10:54:31;;;;;;;0.50;0.50;;;0.20;99.90;;;;;;5112247;27;20218;-71
2022/11/21 10:57:15;;;;;;;0.88;0.88;;;0.20;99.90;;;;;;5140237;27;20277;-72
2022/11/21 10:59:53;;;;;;;0.90;0.90;;;0.10;99.90;;;;;;5140118;27;20269;-72
2022/11/21 11:02:18;;;;;;;0.70;0.70;;;0.10;99.90;;;;;;5140256;27;20206;-72
2022/11/21 11:04:44;;;;;;;0.93;0.93;;;0.10;99.90;;;;;;5128435;27;20215;-72
2022/11/21 11:07:27;;;;;;;0.57;0.57;;;0.00;99.90;;;;;;5101321;28;20203;-72
2022/11/21 11:10:22;;;;;;;13.15;2.08;;;0.10;99.90;;;;;;5092834;28;20208;-72
2022/11/21 11:15:35;;;;;;;0.80;0.80;;;0.20;99.90;;;;;;5099297;28;20806;-71
2022/11/21 11:18:03;;;;;;;0.70;0.70;;;0.20;99.90;;;;;;5099245;28;20184;-72
2022/11/21 11:20:31;;;;;;;0.70;0.70;;;0.20;99.90;;;;;;5095670;28;20662;-72
2022/11/21 11:22:57;;;;;;;0.60;0.60;;;0.30;99.90;;;;;;5097364;28;20227;-71
2022/11/21 11:25:23;;;;;;;2.97;1.00;;;0.40;99.90;;;;;;5098946;28;20235;-72
2022/11/21 11:27:49;;;;;;;0.80;0.80;;;0.30;99.90;;;;;;5097731;28;20224;-71
2022/11/21 11:30:18;;;;;;;0.65;0.65;;;0.40;99.90;;;;;;5099056;28;20651;-72
2022/11/21 11:32:44;;;;;;;0.60;0.60;;;0.40;99.90;;;;;;5097586;28;20279;-72
2022/11/21 11:35:15;;;;;;;0.90;0.90;;;0.30;99.90;;;;;;5098912;28;20232;-72
2022/11/21 11:37:45;;;;;;;0.70;0.70;;;0.30;99.90;;;;;;5091738;28;20679;-72
2022/11/21 11:40:27;;;;;;;0.88;0.88;;;0.30;99.90;;;;;;5074207;28;20204;-71
2022/11/21 11:48:48;;;;;;;0.68;0.68;;;0.30;99.90;;;;;;5095605;28;20298;-72
2022/11/21 11:51:36;;;;;;;0.60;0.60;;;0.40;99.90;;;;;;5095623;28;20203;-72
2022/11/21 11:54:42;;;;;;;1.25;1.15;;;0.40;99.90;;;;;;5077252;28;20196;-72
2022/11/21 11:57:09;;;;;;;1.13;1.00;;;0.40;99.90;;;;;;5094603;28;20208;-72
2022/11/21 11:59:49;;;;;;;0.70;0.70;;;0.40;99.90;;;;;;5095196;28;20199;-71
2022/11/21 12:02:20;;;;;;;0.70;0.70;;;0.40;99.90;;;;;;5095339;28;20192;-72
2022/11/21 12:05:06;;;;;;;0.73;0.73;;;0.50;99.90;;;;;;5095132;28;20211;-72
2022/11/21 12:07:38;;;;;;;0.60;0.60;;;0.50;99.90;;;;;;5079065;28;20200;-72
2022/11/21 12:10:10;;;;;;;0.80;0.80;;;0.40;99.90;;;;;;5097337;28;20290;-71
2022/11/21 12:12:48;;;;;;;0.82;0.82;;;0.40;99.90;;;;;;5097028;28;20285;-72
2022/11/21 12:15:47;;;;;;;0.73;0.73;;;0.40;99.90;;;;;;5108878;28;20662;-72
2022/11/21 12:18:19;;;;;;;0.80;0.80;;;0.40;99.90;;;;;;5095071;28;20192;-72
2022/11/21 12:21:19;;;;;;;0.70;0.70;;;0.40;99.90;;;;;;5094916;28;20192;-72
2022/11/21 12:23:49;;;;;;;0.70;0.70;;;0.50;99.90;;;;;;5094843;28;20576;-72
2022/11/21 12:26:42;;;;;;;0.60;0.60;;;0.50;99.90;;;;;;5094934;28;20651;-72
2022/11/21 12:29:42;;;;;;;0.68;0.68;;;0.50;99.90;;;;;;5094699;28;20188;-72
2022/11/21 12:32:49;;;;;;;0.80;0.80;;;0.40;99.90;;;;;;5094776;28;20279;-73
2022/11/21 12:35:28;;;;;;;0.70;0.70;;;0.50;99.90;;;;;;5094778;28;20681;-72
2022/11/21 12:38:04;;;;;;;0.60;0.60;;;0.40;99.90;;;;;;5083849;28;20194;-71
2022/11/21 12:40:53;;;;;;;0.60;0.60;;;0.50;99.90;;;;;;5096548;28;20195;-71
2022/11/21 12:43:52;;;;;;;0.70;0.70;;;0.40;99.90;;;;;;5096537;28;20211;-72
2022/11/21 12:46:32;;;;;;;1.00;1.00;;;0.40;99.90;;;;;;5114901;28;20700;-72
2022/11/21 12:55:39;;;;;;;0.80;0.80;;;0.40;99.90;;;;;;5012415;28;20206;-72
2022/11/21 12:58:31;;;;;;;1.20;1.10;;;0.40;99.90;;;;;;5089044;28;20571;-71
2022/11/21 13:00:59;;;;;;;0.57;0.57;;;0.40;99.90;;;;;;5096303;28;20203;-72
2022/11/21 13:03:34;;;;;;;6.78;1.90;;;0.40;99.90;;;;;;5096011;28;20306;-71
2022/11/21 13:06:02;;;;;;;0.80;0.80;;;0.40;99.90;;;;;;5114497;28;20270;-71
2022/11/21 13:08:30;;;;;;;0.70;0.70;;;0.40;99.90;;;;;;5092333;28;20236;-71
2022/11/21 13:13:58;;;;;;;0.70;0.70;;;0.40;99.90;;;;;;5094014;28;20207;-72
2022/11/21 13:16:43;;;;;;;0.57;0.57;;;0.40;99.90;;;;;;5075519;28;20316;-72
2022/11/21 13:19:42;;;;;;;0.65;0.65;;;0.30;99.90;;;;;;5093840;28;20250;-73
2022/11/21 13:22:36;;;;;;;1.45;0.98;;;0.40;99.90;;;;;;5093813;28;20267;-71
2022/11/21 13:25:13;;;;;;;0.70;0.70;;;0.40;99.90;;;;;;5093526;28;20204;-72
2022/11/21 13:27:40;;;;;;;0.90;0.90;;;0.40;99.90;;;;;;5075375;28;20287;-72
2022/11/21 13:30:06;;;;;;;0.60;0.60;;;0.40;99.90;;;;;;5093746;28;20580;-72
2022/11/21 13:32:50;;;;;;;0.65;0.65;;;0.30;99.90;;;;;;5093495;28;20191;-72
2022/11/21 13:35:18;;;;;;;1.00;1.00;;;0.40;99.90;;;;;;5088749;28;20215;-72